createdAt,value
2022-12-31T00:00:15.354Z,10.90
2022-12-31T00:03:02.996Z,8.20
2022-12-31T00:05:50.486Z,7.67
2022-12-31T00:08:37.910Z,7.70
2022-12-31T00:11:25.895Z,8.13
2022-12-31T00:14:13.289Z,8.70
2022-12-31T00:17:00.707Z,8.00
2022-12-31T00:19:48.096Z,7.63
2022-12-31T00:22:35.628Z,8.10
2022-12-31T00:25:23.258Z,7.47
2022-12-31T00:28:10.608Z,10.03
2022-12-31T00:30:57.987Z,8.30
2022-12-31T00:33:45.995Z,9.53
2022-12-31T00:36:34.775Z,7.57
2022-12-31T00:39:22.129Z,7.10
2022-12-31T00:42:09.514Z,7.97
2022-12-31T00:44:56.901Z,8.73
2022-12-31T00:47:44.266Z,7.70
2022-12-31T00:50:31.646Z,7.10
2022-12-31T00:53:19.068Z,8.37
2022-12-31T00:56:07.908Z,7.30
2022-12-31T00:58:55.470Z,9.47
2022-12-31T01:01:43.416Z,7.43
2022-12-31T01:04:30.893Z,7.57
2022-12-31T01:07:18.274Z,8.37
2022-12-31T01:10:05.950Z,8.10
2022-12-31T01:12:53.345Z,8.40
2022-12-31T01:15:41.009Z,7.80
2022-12-31T01:18:28.380Z,7.77
2022-12-31T01:21:16.051Z,7.93
2022-12-31T01:24:03.501Z,7.50
2022-12-31T01:26:51.408Z,6.90
2022-12-31T01:29:38.776Z,10.23
2022-12-31T01:32:26.110Z,7.87
2022-12-31T01:35:13.476Z,7.83
2022-12-31T01:38:00.823Z,7.80
2022-12-31T01:40:48.414Z,9.10
2022-12-31T01:44:02.234Z,7.77
2022-12-31T01:46:57.077Z,7.90
2022-12-31T01:49:50.418Z,9.83
2022-12-31T01:52:46.194Z,9.60
2022-12-31T01:55:45.512Z,7.17
2022-12-31T01:58:40.878Z,8.10
2022-12-31T02:01:30.796Z,9.03
2022-12-31T02:04:18.311Z,7.03
2022-12-31T02:07:07.055Z,8.97
2022-12-31T02:09:54.486Z,7.97
2022-12-31T02:12:41.909Z,6.23
2022-12-31T02:15:52.607Z,6.90
2022-12-31T02:18:44.725Z,6.20
2022-12-31T02:21:37.767Z,5.97
2022-12-31T02:24:34.591Z,6.80
2022-12-31T02:27:40.652Z,6.17
2022-12-31T02:30:31.642Z,6.93
2022-12-31T02:33:32.961Z,6.17
2022-12-31T02:36:23.257Z,7.30
2022-12-31T02:39:11.417Z,6.33
2022-12-31T02:42:00.371Z,7.50
2022-12-31T02:44:47.747Z,6.43
2022-12-31T02:47:41.001Z,13.77
2022-12-31T02:50:36.880Z,9.20
2022-12-31T02:53:34.462Z,6.83
2022-12-31T02:56:28.647Z,6.90
2022-12-31T02:59:41.847Z,7.03
2022-12-31T03:02:30.585Z,7.40
2022-12-31T03:05:19.500Z,8.23
2022-12-31T03:08:06.876Z,7.00
2022-12-31T03:10:56.746Z,6.23
2022-12-31T03:13:44.096Z,6.47
2022-12-31T03:16:31.472Z,7.37
2022-12-31T03:19:37.408Z,6.23
2022-12-31T03:22:27.639Z,6.40
2022-12-31T03:25:34.979Z,6.77
2022-12-31T03:28:24.223Z,8.07
2022-12-31T03:31:11.592Z,6.53
2022-12-31T03:33:59.027Z,6.93
2022-12-31T03:36:46.368Z,7.57
2022-12-31T03:39:33.738Z,6.47
2022-12-31T03:42:21.090Z,8.03
2022-12-31T03:45:08.853Z,8.03
2022-12-31T03:47:56.255Z,7.60
2022-12-31T03:50:43.831Z,7.83
2022-12-31T03:53:32.046Z,8.63
2022-12-31T03:56:19.396Z,7.40
2022-12-31T03:59:06.728Z,8.00
2022-12-31T04:01:54.606Z,10.97
2022-12-31T04:04:42.017Z,8.93
2022-12-31T04:07:29.441Z,8.40
2022-12-31T04:10:17.946Z,10.90
2022-12-31T04:13:05.309Z,8.67
2022-12-31T04:15:52.750Z,9.93
2022-12-31T04:18:40.088Z,8.87
2022-12-31T04:21:33.055Z,11.17
2022-12-31T04:24:22.290Z,9.87
2022-12-31T04:27:10.201Z,9.33
2022-12-31T04:29:57.120Z,10.77
2022-12-31T04:32:44.057Z,9.73
2022-12-31T04:35:30.985Z,10.13
2022-12-31T04:38:17.948Z,9.37
2022-12-31T04:41:17.060Z,10.50
2022-12-31T04:44:04.179Z,10.23
2022-12-31T04:46:51.115Z,9.30
2022-12-31T04:49:38.051Z,10.67
2022-12-31T04:52:25.548Z,8.50
2022-12-31T04:55:12.583Z,11.33
2022-12-31T04:57:59.514Z,9.27
2022-12-31T05:00:49.620Z,8.20
2022-12-31T05:03:36.960Z,8.00
2022-12-31T05:06:24.025Z,9.27
2022-12-31T05:09:11.075Z,7.13
2022-12-31T05:11:58.209Z,7.00
2022-12-31T05:14:45.140Z,8.13
2022-12-31T05:17:32.072Z,11.57
2022-12-31T05:20:19.021Z,8.23
2022-12-31T05:23:06.013Z,7.30
2022-12-31T05:25:53.526Z,7.03
2022-12-31T05:28:40.998Z,6.73
2022-12-31T05:31:28.433Z,6.57
2022-12-31T05:34:15.807Z,6.70
2022-12-31T05:37:03.211Z,7.43
2022-12-31T05:39:50.637Z,10.23
2022-12-31T05:42:38.027Z,9.37
2022-12-31T05:45:30.660Z,9.37
2022-12-31T05:48:18.458Z,10.83
2022-12-31T05:51:05.982Z,10.90
2022-12-31T05:53:53.346Z,17.37
2022-12-31T05:56:40.692Z,17.80
2022-12-31T05:59:28.039Z,15.07
2022-12-31T06:02:15.491Z,17.37
2022-12-31T06:05:02.942Z,16.67
2022-12-31T06:07:50.292Z,15.67
2022-12-31T06:10:37.736Z,22.30
2022-12-31T06:13:25.099Z,14.63
2022-12-31T06:16:12.817Z,11.40
2022-12-31T06:19:00.292Z,15.40
2022-12-31T06:21:47.678Z,12.90
2022-12-31T06:24:35.058Z,12.90
2022-12-31T06:27:22.453Z,10.67
2022-12-31T06:30:10.262Z,10.93
2022-12-31T06:32:57.696Z,12.17
2022-12-31T06:35:45.046Z,12.60
2022-12-31T06:38:34.012Z,11.57
2022-12-31T06:41:21.545Z,12.60
2022-12-31T06:44:08.896Z,13.97
2022-12-31T06:46:56.345Z,14.40
2022-12-31T06:49:43.740Z,12.83
2022-12-31T06:52:31.097Z,13.07
2022-12-31T06:55:18.644Z,12.30
2022-12-31T06:58:06.232Z,10.93
2022-12-31T07:01:12.395Z,10.97
2022-12-31T07:04:08.972Z,11.43
2022-12-31T07:07:06.970Z,13.60
2022-12-31T07:09:57.453Z,11.60
2022-12-31T07:12:50.118Z,14.13
2022-12-31T07:16:11.643Z,21.37
2022-12-31T07:18:58.580Z,7.37
2022-12-31T07:21:45.816Z,10.13
2022-12-31T07:24:33.130Z,7.33
2022-12-31T07:27:51.349Z,7.20
2022-12-31T07:31:14.694Z,7.57
2022-12-31T07:34:40.633Z,5.43
2022-12-31T07:37:51.174Z,5.73
2022-12-31T07:41:16.763Z,4.97
2022-12-31T07:44:28.367Z,7.50
2022-12-31T07:47:25.187Z,4.33
2022-12-31T07:50:18.064Z,6.00
2022-12-31T07:53:05.376Z,4.17
2022-12-31T07:56:10.748Z,4.87
2022-12-31T07:59:19.631Z,6.27
2022-12-31T08:02:18.723Z,4.40
2022-12-31T08:05:22.010Z,5.13
2022-12-31T08:08:42.609Z,3.47
2022-12-31T08:11:37.838Z,4.60
2022-12-31T08:14:25.627Z,2.60
2022-12-31T08:17:14.879Z,2.33
2022-12-31T08:20:01.927Z,2.27
2022-12-31T08:23:10.382Z,2.33
2022-12-31T08:26:08.712Z,2.60
2022-12-31T08:29:06.101Z,1.93
2022-12-31T08:32:01.670Z,2.87
2022-12-31T08:35:07.247Z,3.20
2022-12-31T08:38:26.342Z,3.07
2022-12-31T08:41:42.348Z,3.87
2022-12-31T08:44:44.280Z,6.80
2022-12-31T08:47:38.751Z,6.43
2022-12-31T08:50:26.031Z,5.10
2022-12-31T08:53:13.206Z,8.10
2022-12-31T08:56:20.469Z,3.97
2022-12-31T08:59:37.462Z,4.87
2022-12-31T09:02:48.343Z,7.77
2022-12-31T09:06:02.560Z,4.30
2022-12-31T09:09:14.406Z,3.30
2022-12-31T09:12:23.629Z,2.43
2022-12-31T09:15:18.273Z,2.20
2022-12-31T09:18:05.589Z,2.13
2022-12-31T09:20:52.723Z,2.30
2022-12-31T09:23:40.385Z,2.93
2022-12-31T09:26:42.408Z,2.00
2022-12-31T09:29:50.772Z,2.37
2022-12-31T09:33:00.526Z,2.27
2022-12-31T09:35:52.561Z,2.23
2022-12-31T09:39:06.841Z,2.20
2022-12-31T09:41:56.792Z,2.00
2022-12-31T09:45:05.107Z,1.93
2022-12-31T09:48:24.468Z,2.27
2022-12-31T09:51:25.338Z,1.90
2022-12-31T09:54:33.200Z,3.43
2022-12-31T09:58:03.647Z,3.13
2022-12-31T10:00:59.722Z,4.03
2022-12-31T10:04:25.144Z,3.13
2022-12-31T10:07:40.582Z,2.97
2022-12-31T10:10:55.678Z,2.30
2022-12-31T10:13:45.662Z,2.13
2022-12-31T10:17:06.128Z,2.80
2022-12-31T10:20:47.122Z,10.13
2022-12-31T10:23:42.806Z,12.27
2022-12-31T10:27:12.800Z,13.27
2022-12-31T10:30:20.769Z,12.63
2022-12-31T10:33:25.469Z,17.40
2022-12-31T10:36:41.811Z,5.80
2022-12-31T10:39:43.609Z,2.57
2022-12-31T10:42:47.125Z,3.53
2022-12-31T10:46:11.562Z,6.40
2022-12-31T10:49:13.383Z,4.33
2022-12-31T10:52:09.189Z,4.70
2022-12-31T10:55:24.101Z,2.23
2022-12-31T10:58:26.244Z,4.67
2022-12-31T11:01:42.850Z,6.77
2022-12-31T11:04:50.815Z,2.27
2022-12-31T11:08:02.859Z,1.67
2022-12-31T11:10:49.769Z,1.50
2022-12-31T11:13:46.013Z,1.37
2022-12-31T11:16:38.083Z,1.40
2022-12-31T11:19:51.042Z,1.27
2022-12-31T11:23:09.462Z,1.47
2022-12-31T11:26:36.887Z,1.30
2022-12-31T11:29:49.560Z,1.97
2022-12-31T11:32:42.565Z,1.30
2022-12-31T11:35:45.291Z,1.47
2022-12-31T11:38:38.612Z,1.53
2022-12-31T11:41:39.450Z,1.60
2022-12-31T11:44:44.904Z,1.43
2022-12-31T11:48:32.146Z,1.80
2022-12-31T11:51:50.593Z,1.73
2022-12-31T11:55:24.272Z,2.33
2022-12-31T11:58:22.356Z,1.47
2022-12-31T12:01:18.333Z,1.80
2022-12-31T12:04:05.347Z,1.70
2022-12-31T12:06:53.187Z,1.90
2022-12-31T12:09:42.183Z,1.87
2022-12-31T12:12:42.436Z,1.70
2022-12-31T12:15:33.131Z,1.90
2022-12-31T12:18:33.706Z,1.70
2022-12-31T12:21:22.980Z,1.80
2022-12-31T12:24:29.847Z,1.70
2022-12-31T12:27:27.739Z,3.17
2022-12-31T12:30:22.318Z,1.57
2022-12-31T12:33:16.451Z,2.37
2022-12-31T12:36:08.281Z,1.30
2022-12-31T12:39:02.706Z,1.40
2022-12-31T12:42:00.519Z,1.20
2022-12-31T12:44:47.951Z,1.20
2022-12-31T12:47:35.613Z,2.67
2022-12-31T12:50:26.252Z,1.37
2022-12-31T12:53:32.455Z,1.50
2022-12-31T12:56:19.889Z,1.80
2022-12-31T12:59:25.844Z,1.50
2022-12-31T13:02:19.333Z,1.20
2022-12-31T13:05:28.313Z,1.90
2022-12-31T13:08:25.296Z,1.50
2022-12-31T13:11:22.681Z,1.20
2022-12-31T13:14:15.986Z,1.37
2022-12-31T13:17:28.348Z,1.13
2022-12-31T13:20:15.697Z,2.60
2022-12-31T13:23:06.696Z,1.20
2022-12-31T13:26:04.711Z,1.40
2022-12-31T13:28:53.212Z,1.50
2022-12-31T13:31:40.949Z,1.70
2022-12-31T13:34:31.143Z,1.40
2022-12-31T13:37:37.499Z,1.20
2022-12-31T13:40:28.164Z,1.50
2022-12-31T13:43:24.544Z,2.47
2022-12-31T13:46:26.669Z,1.80
2022-12-31T13:49:23.453Z,1.40
2022-12-31T13:52:34.868Z,2.10
2022-12-31T13:55:24.984Z,1.20
2022-12-31T13:58:12.374Z,1.27
2022-12-31T14:01:14.149Z,1.20
2022-12-31T14:04:14.001Z,2.43
2022-12-31T14:07:05.201Z,1.67
2022-12-31T14:09:53.268Z,1.03
2022-12-31T14:12:56.844Z,1.30
2022-12-31T14:15:50.068Z,1.30
2022-12-31T14:18:44.864Z,1.47
2022-12-31T14:21:38.062Z,2.40
2022-12-31T14:24:41.227Z,1.53
2022-12-31T14:27:39.716Z,1.87
2022-12-31T14:30:30.893Z,1.27
2022-12-31T14:33:33.628Z,1.53
2022-12-31T14:36:23.945Z,1.40
2022-12-31T14:39:26.296Z,1.77
2022-12-31T14:42:24.932Z,1.67
2022-12-31T14:45:30.482Z,1.47
2022-12-31T14:48:45.950Z,2.47
2022-12-31T14:51:35.490Z,1.70
2022-12-31T14:54:29.122Z,2.80
2022-12-31T14:57:23.491Z,3.07
2022-12-31T15:00:26.116Z,3.30
2022-12-31T15:03:15.842Z,3.53
2022-12-31T15:06:09.088Z,3.97
2022-12-31T15:09:07.927Z,3.77
2022-12-31T15:11:59.068Z,3.97
2022-12-31T15:14:49.525Z,3.93
2022-12-31T15:17:55.428Z,4.10
2022-12-31T15:20:48.842Z,3.17
2022-12-31T15:23:37.621Z,4.37
2022-12-31T15:26:30.861Z,3.80
2022-12-31T15:29:26.521Z,3.17
2022-12-31T15:32:21.350Z,5.93
2022-12-31T15:35:20.601Z,3.43
2022-12-31T15:38:10.536Z,3.80
2022-12-31T15:40:58.605Z,4.13
2022-12-31T15:43:48.815Z,3.97
2022-12-31T15:46:38.408Z,6.87
2022-12-31T15:49:26.541Z,6.70
2022-12-31T15:52:15.005Z,4.20
2022-12-31T15:55:06.276Z,4.33
2022-12-31T15:57:58.312Z,7.00
2022-12-31T16:00:51.709Z,5.07
2022-12-31T16:03:43.244Z,5.73
2022-12-31T16:06:33.701Z,3.70
2022-12-31T16:09:26.856Z,4.63
2022-12-31T16:12:21.238Z,4.00
2022-12-31T16:15:19.732Z,5.57
2022-12-31T16:18:18.910Z,5.03
2022-12-31T16:21:34.055Z,7.40
2022-12-31T16:24:37.433Z,5.03
2022-12-31T16:27:34.235Z,6.00
2022-12-31T16:30:32.151Z,4.47
2022-12-31T16:33:19.223Z,3.97
2022-12-31T16:36:06.506Z,4.50
2022-12-31T16:38:59.345Z,6.50
2022-12-31T16:41:46.343Z,6.20
2022-12-31T16:44:33.372Z,5.93
2022-12-31T16:47:41.037Z,6.10
2022-12-31T16:50:30.492Z,4.67
2022-12-31T16:53:24.864Z,4.50
2022-12-31T16:56:24.127Z,6.00
2022-12-31T16:59:35.627Z,5.67
2022-12-31T17:02:26.372Z,3.97
2022-12-31T17:05:22.944Z,8.07
2022-12-31T17:08:43.938Z,5.17
2022-12-31T17:11:30.882Z,4.27
2022-12-31T17:14:23.636Z,4.30
2022-12-31T17:17:22.286Z,16.80
2022-12-31T17:20:21.414Z,9.70
2022-12-31T17:23:09.148Z,7.97
2022-12-31T17:26:12.037Z,7.87
2022-12-31T17:29:00.641Z,6.17
2022-12-31T17:32:07.203Z,8.70
2022-12-31T17:34:54.416Z,6.80
2022-12-31T17:37:42.349Z,8.70
2022-12-31T17:40:53.219Z,8.07
2022-12-31T17:43:40.650Z,8.73
2022-12-31T17:46:27.746Z,9.67
2022-12-31T17:49:14.958Z,8.20
2022-12-31T17:52:01.929Z,8.23
2022-12-31T17:54:48.821Z,10.07
2022-12-31T17:57:36.219Z,8.40
2022-12-31T18:00:25.756Z,8.53
2022-12-31T18:03:12.792Z,6.37
2022-12-31T18:05:59.907Z,5.67
2022-12-31T18:08:47.241Z,5.60
2022-12-31T18:11:36.079Z,5.70
2022-12-31T18:14:23.009Z,3.63
2022-12-31T18:17:15.135Z,6.60
2022-12-31T18:20:06.288Z,5.30
2022-12-31T18:22:53.677Z,6.60
2022-12-31T18:28:26.476Z,6.40
2022-12-31T18:31:17.613Z,6.13
2022-12-31T18:34:04.712Z,4.87
2022-12-31T18:36:51.656Z,4.50
2022-12-31T18:39:38.731Z,6.47
2022-12-31T18:42:28.205Z,3.67
2022-12-31T18:45:17.196Z,5.40
2022-12-31T18:48:04.233Z,6.70
2022-12-31T18:50:51.355Z,9.63
2022-12-31T18:53:38.330Z,11.30
2022-12-31T18:56:25.329Z,14.57
2022-12-31T18:59:15.625Z,15.47
2022-12-31T19:02:02.723Z,14.80
2022-12-31T19:04:49.712Z,19.23
2022-12-31T19:07:36.629Z,14.90
2022-12-31T19:10:25.591Z,13.47
2022-12-31T19:13:13.453Z,15.63
2022-12-31T19:16:01.052Z,12.83
2022-12-31T19:18:48.962Z,9.33
2022-12-31T19:21:35.939Z,11.67
2022-12-31T19:24:26.485Z,12.30
2022-12-31T19:27:13.753Z,12.90
2022-12-31T19:30:02.297Z,13.57
2022-12-31T19:32:49.959Z,10.57
2022-12-31T19:35:38.235Z,11.93
2022-12-31T19:38:26.810Z,16.17
2022-12-31T19:41:17.039Z,14.20
2022-12-31T19:44:03.959Z,11.60
2022-12-31T19:46:50.904Z,13.10
2022-12-31T19:49:37.818Z,12.60
2022-12-31T19:52:24.796Z,15.37
2022-12-31T19:55:18.546Z,16.03
2022-12-31T19:58:05.997Z,14.20
2022-12-31T20:01:02.306Z,12.13
2022-12-31T20:03:52.097Z,13.93
2022-12-31T20:06:39.510Z,17.97
2022-12-31T20:09:26.470Z,12.90
2022-12-31T20:12:16.140Z,17.10
2022-12-31T20:15:03.970Z,16.13
2022-12-31T20:17:50.945Z,11.83
2022-12-31T20:20:37.868Z,15.53
2022-12-31T20:23:24.786Z,13.43
2022-12-31T20:26:12.060Z,13.17
2022-12-31T20:28:59.007Z,15.33
2022-12-31T20:31:45.936Z,11.10
2022-12-31T20:34:33.397Z,14.47
2022-12-31T20:37:20.757Z,12.03
2022-12-31T20:40:08.455Z,11.50
2022-12-31T20:42:55.862Z,11.00
2022-12-31T20:45:44.625Z,9.17
2022-12-31T20:48:32.138Z,11.23
2022-12-31T20:51:20.281Z,9.50
2022-12-31T20:54:09.431Z,10.70
2022-12-31T20:56:56.761Z,12.03
2022-12-31T20:59:44.118Z,10.33
2022-12-31T21:02:41.429Z,12.60
2022-12-31T21:05:29.992Z,10.87
2022-12-31T21:08:17.645Z,11.30
2022-12-31T21:11:24.064Z,16.10
2022-12-31T21:14:11.405Z,16.90
2022-12-31T21:16:58.736Z,12.17
2022-12-31T21:19:46.163Z,9.37
2022-12-31T21:22:33.764Z,11.80
2022-12-31T21:25:21.375Z,8.37
2022-12-31T21:28:08.740Z,8.07
2022-12-31T21:31:02.981Z,8.53
2022-12-31T21:33:50.377Z,8.57
2022-12-31T21:36:37.761Z,10.10
2022-12-31T21:39:25.108Z,9.20
2022-12-31T21:42:12.582Z,7.13
2022-12-31T21:45:00.254Z,7.47
2022-12-31T21:48:06.263Z,6.93
2022-12-31T21:50:54.892Z,8.23
2022-12-31T21:53:42.294Z,9.07
2022-12-31T21:56:29.246Z,6.47
2022-12-31T21:59:34.976Z,7.63
2022-12-31T22:02:40.988Z,10.03
2022-12-31T22:05:55.321Z,9.10
2022-12-31T22:08:44.610Z,7.40
2022-12-31T22:11:31.569Z,8.53
2022-12-31T22:14:18.546Z,8.40
2022-12-31T22:17:05.489Z,7.97
2022-12-31T22:20:25.433Z,8.13
2022-12-31T22:22:59.396Z,8.93
2022-12-31T22:25:46.377Z,8.23
2022-12-31T22:28:39.074Z,5.70
2022-12-31T22:31:30.155Z,8.73
2022-12-31T22:34:17.312Z,8.37
2022-12-31T22:37:20.447Z,5.90
2022-12-31T22:40:11.449Z,9.10
2022-12-31T22:42:58.569Z,7.30
2022-12-31T22:45:45.496Z,6.87
2022-12-31T22:48:32.413Z,7.77
2022-12-31T22:51:20.324Z,9.20
2022-12-31T22:54:07.235Z,8.07
2022-12-31T22:56:54.438Z,6.83
2022-12-31T22:59:41.429Z,8.37
2022-12-31T23:02:28.416Z,7.60
2022-12-31T23:05:16.494Z,8.43
2022-12-31T23:08:12.861Z,8.73
2022-12-31T23:11:09.558Z,6.70
2022-12-31T23:14:15.282Z,8.07
2022-12-31T23:17:29.801Z,10.07
2022-12-31T23:20:44.075Z,18.50
2022-12-31T23:23:31.515Z,9.03
2022-12-31T23:26:18.447Z,8.77
2022-12-31T23:29:05.444Z,6.87
2022-12-31T23:31:53.432Z,11.07
2022-12-31T23:34:40.738Z,8.37
2022-12-31T23:37:27.768Z,11.63
2022-12-31T23:40:20.942Z,12.30
2022-12-31T23:43:10.012Z,11.57
2022-12-31T23:45:56.967Z,14.93
2022-12-31T23:48:44.092Z,14.57
2022-12-31T23:51:31.079Z,15.87
2022-12-31T23:54:18.150Z,15.90
2022-12-31T23:57:05.082Z,18.27
2022-12-31T23:59:52.008Z,17.67
